sensor_id;sensor_type;location;lat;lon;timestamp;P1;durP1;ratioP1;P2;durP2;ratioP2
12591;SDS011;6361;52.120;5.108;2022-12-18T00:01:48;82.28;;;28.83;;
12591;SDS011;6361;52.120;5.108;2022-12-18T00:04:31;78.47;;;29.30;;
12591;SDS011;6361;52.120;5.108;2022-12-18T00:06:57;75.10;;;29.10;;
12591;SDS011;6361;52.120;5.108;2022-12-18T00:09:22;75.63;;;28.63;;
12591;SDS011;6361;52.120;5.108;2022-12-18T00:11:48;73.97;;;29.48;;
12591;SDS011;6361;52.120;5.108;2022-12-18T00:14:13;78.00;;;29.92;;
12591;SDS011;6361;52.120;5.108;2022-12-18T00:16:39;76.65;;;30.63;;
12591;SDS011;6361;52.120;5.108;2022-12-18T00:19:05;75.85;;;30.25;;
12591;SDS011;6361;52.120;5.108;2022-12-18T00:21:32;74.90;;;29.55;;
12591;SDS011;6361;52.120;5.108;2022-12-18T00:23:58;80.13;;;30.63;;
12591;SDS011;6361;52.120;5.108;2022-12-18T00:26:28;76.90;;;30.02;;
12591;SDS011;6361;52.120;5.108;2022-12-18T00:28:55;80.43;;;30.50;;
12591;SDS011;6361;52.120;5.108;2022-12-18T00:31:26;76.75;;;30.90;;
12591;SDS011;6361;52.120;5.108;2022-12-18T00:33:55;77.85;;;30.10;;
12591;SDS011;6361;52.120;5.108;2022-12-18T00:36:23;73.72;;;30.38;;
12591;SDS011;6361;52.120;5.108;2022-12-18T00:38:50;76.47;;;29.63;;
12591;SDS011;6361;52.120;5.108;2022-12-18T00:41:16;85.28;;;30.63;;
12591;SDS011;6361;52.120;5.108;2022-12-18T00:44:02;73.38;;;29.20;;
12591;SDS011;6361;52.120;5.108;2022-12-18T00:46:28;69.63;;;29.05;;
12591;SDS011;6361;52.120;5.108;2022-12-18T00:48:54;81.32;;;32.00;;
12591;SDS011;6361;52.120;5.108;2022-12-18T00:51:19;78.40;;;30.92;;
12591;SDS011;6361;52.120;5.108;2022-12-18T00:53:45;78.15;;;30.55;;
12591;SDS011;6361;52.120;5.108;2022-12-18T00:56:11;77.28;;;30.45;;
12591;SDS011;6361;52.120;5.108;2022-12-18T00:58:37;79.45;;;30.95;;
12591;SDS011;6361;52.120;5.108;2022-12-18T01:01:05;65.78;;;28.58;;
12591;SDS011;6361;52.120;5.108;2022-12-18T01:03:31;67.90;;;27.73;;
12591;SDS011;6361;52.120;5.108;2022-12-18T01:05:56;73.22;;;29.25;;
12591;SDS011;6361;52.120;5.108;2022-12-18T01:08:22;73.90;;;30.70;;
12591;SDS011;6361;52.120;5.108;2022-12-18T01:10:48;73.93;;;29.92;;
12591;SDS011;6361;52.120;5.108;2022-12-18T01:13:13;75.60;;;29.42;;
12591;SDS011;6361;52.120;5.108;2022-12-18T01:15:38;71.40;;;29.38;;
12591;SDS011;6361;52.120;5.108;2022-12-18T01:18:05;72.13;;;29.98;;
12591;SDS011;6361;52.120;5.108;2022-12-18T01:20:30;69.55;;;29.90;;
12591;SDS011;6361;52.120;5.108;2022-12-18T01:22:56;69.97;;;29.20;;
12591;SDS011;6361;52.120;5.108;2022-12-18T01:25:21;74.28;;;30.25;;
12591;SDS011;6361;52.120;5.108;2022-12-18T01:27:46;70.05;;;29.88;;
12591;SDS011;6361;52.120;5.108;2022-12-18T01:30:12;76.00;;;30.42;;
12591;SDS011;6361;52.120;5.108;2022-12-18T01:32:37;72.65;;;30.17;;
12591;SDS011;6361;52.120;5.108;2022-12-18T01:35:03;75.13;;;31.70;;
12591;SDS011;6361;52.120;5.108;2022-12-18T01:37:29;78.50;;;30.83;;
12591;SDS011;6361;52.120;5.108;2022-12-18T01:39:54;78.72;;;32.20;;
12591;SDS011;6361;52.120;5.108;2022-12-18T01:42:21;72.20;;;29.90;;
12591;SDS011;6361;52.120;5.108;2022-12-18T01:47:14;85.90;;;34.03;;
12591;SDS011;6361;52.120;5.108;2022-12-18T01:49:41;76.88;;;30.17;;
12591;SDS011;6361;52.120;5.108;2022-12-18T01:52:06;80.65;;;31.15;;
12591;SDS011;6361;52.120;5.108;2022-12-18T01:54:32;79.75;;;31.50;;
12591;SDS011;6361;52.120;5.108;2022-12-18T01:56:57;80.53;;;31.05;;
12591;SDS011;6361;52.120;5.108;2022-12-18T01:59:22;77.82;;;30.77;;
12591;SDS011;6361;52.120;5.108;2022-12-18T02:01:48;80.22;;;30.52;;
12591;SDS011;6361;52.120;5.108;2022-12-18T02:04:19;74.45;;;29.98;;
12591;SDS011;6361;52.120;5.108;2022-12-18T02:06:46;75.63;;;29.25;;
12591;SDS011;6361;52.120;5.108;2022-12-18T02:09:21;68.10;;;28.63;;
12591;SDS011;6361;52.120;5.108;2022-12-18T02:11:56;74.72;;;28.77;;
12591;SDS011;6361;52.120;5.108;2022-12-18T02:14:31;72.75;;;29.25;;
12591;SDS011;6361;52.120;5.108;2022-12-18T02:17:19;72.15;;;29.17;;
12591;SDS011;6361;52.120;5.108;2022-12-18T02:27:59;73.65;;;29.15;;
12591;SDS011;6361;52.120;5.108;2022-12-18T02:30:26;73.88;;;30.08;;
12591;SDS011;6361;52.120;5.108;2022-12-18T02:32:53;66.80;;;28.90;;
12591;SDS011;6361;52.120;5.108;2022-12-18T02:35:25;70.28;;;29.60;;
12591;SDS011;6361;52.120;5.108;2022-12-18T02:37:53;69.68;;;28.52;;
12591;SDS011;6361;52.120;5.108;2022-12-18T02:40:19;73.45;;;29.25;;
12591;SDS011;6361;52.120;5.108;2022-12-18T02:42:45;72.82;;;29.73;;
12591;SDS011;6361;52.120;5.108;2022-12-18T02:45:11;70.15;;;29.52;;
12591;SDS011;6361;52.120;5.108;2022-12-18T02:47:38;69.63;;;30.63;;
12591;SDS011;6361;52.120;5.108;2022-12-18T03:03:45;69.65;;;28.65;;
12591;SDS011;6361;52.120;5.108;2022-12-18T03:06:33;65.68;;;27.42;;
12591;SDS011;6361;52.120;5.108;2022-12-18T03:09:06;65.50;;;28.30;;
12591;SDS011;6361;52.120;5.108;2022-12-18T03:11:36;63.97;;;28.23;;
12591;SDS011;6361;52.120;5.108;2022-12-18T03:14:21;64.60;;;28.10;;
12591;SDS011;6361;52.120;5.108;2022-12-18T03:16:49;63.15;;;26.88;;
12591;SDS011;6361;52.120;5.108;2022-12-18T03:19:17;61.10;;;27.08;;
12591;SDS011;6361;52.120;5.108;2022-12-18T03:21:49;65.50;;;28.98;;
12591;SDS011;6361;52.120;5.108;2022-12-18T03:24:17;59.72;;;27.95;;
12591;SDS011;6361;52.120;5.108;2022-12-18T03:26:44;56.63;;;26.08;;
12591;SDS011;6361;52.120;5.108;2022-12-18T03:29:21;66.28;;;27.45;;
12591;SDS011;6361;52.120;5.108;2022-12-18T03:31:51;58.50;;;27.38;;
12591;SDS011;6361;52.120;5.108;2022-12-18T03:34:25;61.90;;;27.85;;
12591;SDS011;6361;52.120;5.108;2022-12-18T03:36:52;59.50;;;26.63;;
12591;SDS011;6361;52.120;5.108;2022-12-18T03:39:18;59.47;;;26.13;;
12591;SDS011;6361;52.120;5.108;2022-12-18T03:41:49;57.03;;;26.42;;
12591;SDS011;6361;52.120;5.108;2022-12-18T03:44:40;57.97;;;27.05;;
12591;SDS011;6361;52.120;5.108;2022-12-18T03:52:35;57.75;;;25.77;;
12591;SDS011;6361;52.120;5.108;2022-12-18T03:55:03;59.83;;;26.58;;
12591;SDS011;6361;52.120;5.108;2022-12-18T03:57:30;64.30;;;27.23;;
12591;SDS011;6361;52.120;5.108;2022-12-18T04:00:00;58.65;;;26.40;;
12591;SDS011;6361;52.120;5.108;2022-12-18T04:02:29;62.95;;;27.17;;
12591;SDS011;6361;52.120;5.108;2022-12-18T04:04:57;53.38;;;26.38;;
12591;SDS011;6361;52.120;5.108;2022-12-18T04:07:25;56.83;;;26.63;;
12591;SDS011;6361;52.120;5.108;2022-12-18T04:09:51;63.72;;;28.02;;
12591;SDS011;6361;52.120;5.108;2022-12-18T04:12:18;60.70;;;27.63;;
12591;SDS011;6361;52.120;5.108;2022-12-18T04:14:44;58.92;;;27.38;;
12591;SDS011;6361;52.120;5.108;2022-12-18T04:17:09;58.78;;;27.42;;
12591;SDS011;6361;52.120;5.108;2022-12-18T04:19:35;57.85;;;27.25;;
12591;SDS011;6361;52.120;5.108;2022-12-18T04:22:00;60.75;;;27.10;;
12591;SDS011;6361;52.120;5.108;2022-12-18T04:24:26;56.65;;;26.70;;
12591;SDS011;6361;52.120;5.108;2022-12-18T04:26:51;57.63;;;28.33;;
12591;SDS011;6361;52.120;5.108;2022-12-18T04:29:16;58.35;;;27.52;;
12591;SDS011;6361;52.120;5.108;2022-12-18T04:31:42;60.22;;;28.67;;
12591;SDS011;6361;52.120;5.108;2022-12-18T04:34:07;57.55;;;28.67;;
12591;SDS011;6361;52.120;5.108;2022-12-18T04:36:32;61.25;;;28.25;;
12591;SDS011;6361;52.120;5.108;2022-12-18T04:38:58;60.45;;;29.08;;
12591;SDS011;6361;52.120;5.108;2022-12-18T04:41:23;58.10;;;26.85;;
12591;SDS011;6361;52.120;5.108;2022-12-18T04:43:48;54.35;;;25.45;;
12591;SDS011;6361;52.120;5.108;2022-12-18T04:46:14;54.17;;;26.85;;
12591;SDS011;6361;52.120;5.108;2022-12-18T04:48:39;56.50;;;26.63;;
12591;SDS011;6361;52.120;5.108;2022-12-18T04:51:05;50.67;;;24.70;;
12591;SDS011;6361;52.120;5.108;2022-12-18T04:53:30;54.85;;;25.23;;
12591;SDS011;6361;52.120;5.108;2022-12-18T04:56:07;49.28;;;25.05;;
12591;SDS011;6361;52.120;5.108;2022-12-18T04:58:34;49.65;;;23.75;;
12591;SDS011;6361;52.120;5.108;2022-12-18T05:01:00;51.85;;;23.98;;
12591;SDS011;6361;52.120;5.108;2022-12-18T05:03:26;47.50;;;23.80;;
12591;SDS011;6361;52.120;5.108;2022-12-18T05:05:51;50.08;;;23.17;;
12591;SDS011;6361;52.120;5.108;2022-12-18T05:08:17;44.75;;;22.40;;
12591;SDS011;6361;52.120;5.108;2022-12-18T05:10:42;48.00;;;23.60;;
12591;SDS011;6361;52.120;5.108;2022-12-18T05:13:08;44.60;;;23.13;;
12591;SDS011;6361;52.120;5.108;2022-12-18T05:15:34;44.75;;;22.33;;
12591;SDS011;6361;52.120;5.108;2022-12-18T05:17:59;43.20;;;21.65;;
12591;SDS011;6361;52.120;5.108;2022-12-18T05:20:25;39.88;;;21.15;;
12591;SDS011;6361;52.120;5.108;2022-12-18T05:22:51;43.47;;;22.02;;
12591;SDS011;6361;52.120;5.108;2022-12-18T05:25:17;38.38;;;20.50;;
12591;SDS011;6361;52.120;5.108;2022-12-18T05:27:43;41.60;;;19.88;;
12591;SDS011;6361;52.120;5.108;2022-12-18T05:30:09;38.92;;;20.88;;
12591;SDS011;6361;52.120;5.108;2022-12-18T05:32:35;40.20;;;19.83;;
12591;SDS011;6361;52.120;5.108;2022-12-18T05:35:00;41.60;;;20.10;;
12591;SDS011;6361;52.120;5.108;2022-12-18T05:37:26;38.17;;;19.20;;
12591;SDS011;6361;52.120;5.108;2022-12-18T05:39:51;38.17;;;18.85;;
12591;SDS011;6361;52.120;5.108;2022-12-18T05:42:16;39.85;;;19.15;;
12591;SDS011;6361;52.120;5.108;2022-12-18T05:44:43;38.40;;;17.80;;
12591;SDS011;6361;52.120;5.108;2022-12-18T05:47:08;39.15;;;19.15;;
12591;SDS011;6361;52.120;5.108;2022-12-18T05:49:34;37.03;;;18.60;;
12591;SDS011;6361;52.120;5.108;2022-12-18T05:51:59;38.78;;;18.27;;
12591;SDS011;6361;52.120;5.108;2022-12-18T05:54:26;35.83;;;16.92;;
12591;SDS011;6361;52.120;5.108;2022-12-18T05:56:52;32.95;;;17.65;;
12591;SDS011;6361;52.120;5.108;2022-12-18T05:59:18;34.35;;;16.38;;
12591;SDS011;6361;52.120;5.108;2022-12-18T06:01:44;33.67;;;17.38;;
12591;SDS011;6361;52.120;5.108;2022-12-18T06:04:09;31.67;;;16.85;;
12591;SDS011;6361;52.120;5.108;2022-12-18T06:06:35;29.05;;;15.30;;
12591;SDS011;6361;52.120;5.108;2022-12-18T06:09:00;33.05;;;16.35;;
12591;SDS011;6361;52.120;5.108;2022-12-18T06:11:26;30.55;;;16.50;;
12591;SDS011;6361;52.120;5.108;2022-12-18T06:13:52;31.83;;;16.20;;
12591;SDS011;6361;52.120;5.108;2022-12-18T06:16:19;32.45;;;17.00;;
12591;SDS011;6361;52.120;5.108;2022-12-18T06:18:44;31.60;;;16.25;;
12591;SDS011;6361;52.120;5.108;2022-12-18T06:21:09;28.80;;;16.15;;
12591;SDS011;6361;52.120;5.108;2022-12-18T06:23:35;32.08;;;16.50;;
12591;SDS011;6361;52.120;5.108;2022-12-18T06:26:08;33.33;;;16.75;;
12591;SDS011;6361;52.120;5.108;2022-12-18T06:28:34;30.00;;;15.53;;
12591;SDS011;6361;52.120;5.108;2022-12-18T06:31:00;28.85;;;15.70;;
12591;SDS011;6361;52.120;5.108;2022-12-18T06:33:27;28.60;;;15.52;;
12591;SDS011;6361;52.120;5.108;2022-12-18T06:35:53;29.25;;;15.05;;
12591;SDS011;6361;52.120;5.108;2022-12-18T06:38:18;27.58;;;15.63;;
12591;SDS011;6361;52.120;5.108;2022-12-18T06:40:44;28.83;;;15.30;;
12591;SDS011;6361;52.120;5.108;2022-12-18T06:43:09;29.27;;;15.75;;
12591;SDS011;6361;52.120;5.108;2022-12-18T06:45:34;29.85;;;16.15;;
12591;SDS011;6361;52.120;5.108;2022-12-18T06:48:00;28.70;;;15.70;;
12591;SDS011;6361;52.120;5.108;2022-12-18T06:50:25;27.83;;;15.75;;
12591;SDS011;6361;52.120;5.108;2022-12-18T06:52:51;26.15;;;15.13;;
12591;SDS011;6361;52.120;5.108;2022-12-18T06:55:16;27.38;;;14.93;;
12591;SDS011;6361;52.120;5.108;2022-12-18T06:57:42;27.45;;;14.82;;
12591;SDS011;6361;52.120;5.108;2022-12-18T07:00:07;26.48;;;14.30;;
12591;SDS011;6361;52.120;5.108;2022-12-18T07:02:33;25.00;;;14.20;;
12591;SDS011;6361;52.120;5.108;2022-12-18T07:04:59;24.70;;;13.63;;
12591;SDS011;6361;52.120;5.108;2022-12-18T07:07:24;28.88;;;15.05;;
12591;SDS011;6361;52.120;5.108;2022-12-18T07:09:50;25.83;;;14.27;;
12591;SDS011;6361;52.120;5.108;2022-12-18T07:12:15;24.83;;;14.15;;
12591;SDS011;6361;52.120;5.108;2022-12-18T07:14:41;26.52;;;14.60;;
12591;SDS011;6361;52.120;5.108;2022-12-18T07:17:06;25.90;;;14.43;;
12591;SDS011;6361;52.120;5.108;2022-12-18T07:19:32;27.70;;;14.27;;
12591;SDS011;6361;52.120;5.108;2022-12-18T07:21:57;28.15;;;14.38;;
12591;SDS011;6361;52.120;5.108;2022-12-18T07:24:23;25.23;;;14.85;;
12591;SDS011;6361;52.120;5.108;2022-12-18T07:26:48;29.63;;;14.48;;
12591;SDS011;6361;52.120;5.108;2022-12-18T07:29:14;28.52;;;15.10;;
12591;SDS011;6361;52.120;5.108;2022-12-18T07:31:39;25.05;;;13.38;;
12591;SDS011;6361;52.120;5.108;2022-12-18T07:34:04;28.00;;;14.65;;
12591;SDS011;6361;52.120;5.108;2022-12-18T07:36:30;27.23;;;14.80;;
12591;SDS011;6361;52.120;5.108;2022-12-18T07:38:55;27.42;;;15.40;;
12591;SDS011;6361;52.120;5.108;2022-12-18T07:41:21;27.00;;;15.02;;
12591;SDS011;6361;52.120;5.108;2022-12-18T07:43:46;26.38;;;15.23;;
12591;SDS011;6361;52.120;5.108;2022-12-18T07:46:12;27.48;;;14.77;;
12591;SDS011;6361;52.120;5.108;2022-12-18T07:48:39;25.83;;;14.98;;
12591;SDS011;6361;52.120;5.108;2022-12-18T07:51:08;28.10;;;15.45;;
12591;SDS011;6361;52.120;5.108;2022-12-18T07:53:33;27.42;;;15.20;;
12591;SDS011;6361;52.120;5.108;2022-12-18T07:56:01;28.63;;;15.38;;
12591;SDS011;6361;52.120;5.108;2022-12-18T07:58:29;28.10;;;15.40;;
12591;SDS011;6361;52.120;5.108;2022-12-18T08:00:54;30.38;;;15.85;;
12591;SDS011;6361;52.120;5.108;2022-12-18T08:03:27;26.33;;;14.85;;
12591;SDS011;6361;52.120;5.108;2022-12-18T08:05:57;26.65;;;14.75;;
12591;SDS011;6361;52.120;5.108;2022-12-18T08:08:23;27.42;;;15.23;;
12591;SDS011;6361;52.120;5.108;2022-12-18T08:10:49;27.77;;;14.70;;
12591;SDS011;6361;52.120;5.108;2022-12-18T08:13:14;26.98;;;14.65;;
12591;SDS011;6361;52.120;5.108;2022-12-18T08:15:39;28.02;;;15.25;;
12591;SDS011;6361;52.120;5.108;2022-12-18T08:18:05;27.15;;;15.50;;
12591;SDS011;6361;52.120;5.108;2022-12-18T08:20:30;26.27;;;14.15;;
12591;SDS011;6361;52.120;5.108;2022-12-18T08:22:55;31.30;;;17.10;;
12591;SDS011;6361;52.120;5.108;2022-12-18T08:25:22;30.27;;;15.77;;
12591;SDS011;6361;52.120;5.108;2022-12-18T08:27:48;30.30;;;15.95;;
12591;SDS011;6361;52.120;5.108;2022-12-18T08:30:13;29.23;;;15.57;;
12591;SDS011;6361;52.120;5.108;2022-12-18T08:32:39;29.30;;;16.10;;
12591;SDS011;6361;52.120;5.108;2022-12-18T08:35:04;30.67;;;16.20;;
12591;SDS011;6361;52.120;5.108;2022-12-18T08:37:30;28.73;;;15.60;;
12591;SDS011;6361;52.120;5.108;2022-12-18T08:39:55;28.20;;;15.20;;
12591;SDS011;6361;52.120;5.108;2022-12-18T08:42:20;29.83;;;15.68;;
12591;SDS011;6361;52.120;5.108;2022-12-18T08:45:05;27.92;;;15.32;;
12591;SDS011;6361;52.120;5.108;2022-12-18T08:47:30;29.63;;;15.38;;
12591;SDS011;6361;52.120;5.108;2022-12-18T08:49:56;26.10;;;15.05;;
12591;SDS011;6361;52.120;5.108;2022-12-18T08:52:21;27.00;;;14.93;;
12591;SDS011;6361;52.120;5.108;2022-12-18T08:54:46;28.77;;;15.20;;
12591;SDS011;6361;52.120;5.108;2022-12-18T08:57:12;28.02;;;14.60;;
12591;SDS011;6361;52.120;5.108;2022-12-18T08:59:37;25.60;;;14.43;;
12591;SDS011;6361;52.120;5.108;2022-12-18T09:02:02;28.23;;;15.02;;
12591;SDS011;6361;52.120;5.108;2022-12-18T09:04:28;32.00;;;15.13;;
12591;SDS011;6361;52.120;5.108;2022-12-18T09:06:53;26.45;;;14.68;;
12591;SDS011;6361;52.120;5.108;2022-12-18T09:09:19;26.38;;;15.52;;
12591;SDS011;6361;52.120;5.108;2022-12-18T09:11:44;25.92;;;14.98;;
12591;SDS011;6361;52.120;5.108;2022-12-18T09:14:10;32.58;;;15.85;;
12591;SDS011;6361;52.120;5.108;2022-12-18T09:16:35;26.33;;;14.90;;
12591;SDS011;6361;52.120;5.108;2022-12-18T09:19:01;25.92;;;14.68;;
12591;SDS011;6361;52.120;5.108;2022-12-18T09:21:29;25.88;;;14.80;;
12591;SDS011;6361;52.120;5.108;2022-12-18T09:23:56;27.15;;;15.10;;
12591;SDS011;6361;52.120;5.108;2022-12-18T09:26:22;25.73;;;14.60;;
12591;SDS011;6361;52.120;5.108;2022-12-18T09:28:48;27.75;;;14.38;;
12591;SDS011;6361;52.120;5.108;2022-12-18T09:31:15;25.70;;;14.70;;
12591;SDS011;6361;52.120;5.108;2022-12-18T09:33:41;28.48;;;15.15;;
12591;SDS011;6361;52.120;5.108;2022-12-18T09:36:07;28.17;;;15.15;;
12591;SDS011;6361;52.120;5.108;2022-12-18T09:38:34;26.55;;;14.77;;
12591;SDS011;6361;52.120;5.108;2022-12-18T09:41:01;27.98;;;14.70;;
12591;SDS011;6361;52.120;5.108;2022-12-18T09:43:33;26.05;;;14.75;;
12591;SDS011;6361;52.120;5.108;2022-12-18T09:46:06;26.40;;;14.88;;
12591;SDS011;6361;52.120;5.108;2022-12-18T09:48:37;25.95;;;15.02;;
12591;SDS011;6361;52.120;5.108;2022-12-18T09:51:13;27.60;;;14.55;;
12591;SDS011;6361;52.120;5.108;2022-12-18T09:53:39;27.05;;;15.38;;
12591;SDS011;6361;52.120;5.108;2022-12-18T09:56:06;25.75;;;15.40;;
12591;SDS011;6361;52.120;5.108;2022-12-18T09:58:53;26.50;;;14.77;;
12591;SDS011;6361;52.120;5.108;2022-12-18T10:01:23;27.90;;;14.52;;
12591;SDS011;6361;52.120;5.108;2022-12-18T10:03:48;28.13;;;14.80;;
12591;SDS011;6361;52.120;5.108;2022-12-18T10:08:51;28.05;;;15.45;;
12591;SDS011;6361;52.120;5.108;2022-12-18T10:19:37;26.60;;;15.70;;
12591;SDS011;6361;52.120;5.108;2022-12-18T10:28:15;27.83;;;14.52;;
12591;SDS011;6361;52.120;5.108;2022-12-18T10:30:41;30.48;;;15.85;;
12591;SDS011;6361;52.120;5.108;2022-12-18T10:33:13;28.88;;;15.30;;
12591;SDS011;6361;52.120;5.108;2022-12-18T10:35:42;25.80;;;14.93;;
12591;SDS011;6361;52.120;5.108;2022-12-18T10:43:15;25.73;;;14.55;;
12591;SDS011;6361;52.120;5.108;2022-12-18T10:45:58;27.33;;;14.90;;
12591;SDS011;6361;52.120;5.108;2022-12-18T10:48:33;24.98;;;13.80;;
12591;SDS011;6361;52.120;5.108;2022-12-18T10:51:01;27.95;;;14.68;;
12591;SDS011;6361;52.120;5.108;2022-12-18T10:53:29;25.65;;;14.27;;
12591;SDS011;6361;52.120;5.108;2022-12-18T10:55:57;26.27;;;14.50;;
12591;SDS011;6361;52.120;5.108;2022-12-18T10:58:30;28.13;;;15.00;;
12591;SDS011;6361;52.120;5.108;2022-12-18T11:01:17;27.33;;;15.23;;
12591;SDS011;6361;52.120;5.108;2022-12-18T11:06:20;27.35;;;15.15;;
12591;SDS011;6361;52.120;5.108;2022-12-18T11:09:05;27.98;;;15.07;;
12591;SDS011;6361;52.120;5.108;2022-12-18T11:11:47;24.83;;;14.32;;
12591;SDS011;6361;52.120;5.108;2022-12-18T11:14:18;25.30;;;13.77;;
12591;SDS011;6361;52.120;5.108;2022-12-18T11:16:47;26.33;;;14.27;;
12591;SDS011;6361;52.120;5.108;2022-12-18T11:21:47;25.58;;;14.75;;
12591;SDS011;6361;52.120;5.108;2022-12-18T11:24:20;25.42;;;14.10;;
12591;SDS011;6361;52.120;5.108;2022-12-18T11:26:48;26.25;;;14.05;;
12591;SDS011;6361;52.120;5.108;2022-12-18T11:29:19;29.67;;;14.93;;
12591;SDS011;6361;52.120;5.108;2022-12-18T11:31:48;24.80;;;14.25;;
12591;SDS011;6361;52.120;5.108;2022-12-18T11:34:22;26.52;;;14.25;;
12591;SDS011;6361;52.120;5.108;2022-12-18T11:36:51;23.75;;;13.63;;
12591;SDS011;6361;52.120;5.108;2022-12-18T11:39:24;28.67;;;14.43;;
12591;SDS011;6361;52.120;5.108;2022-12-18T11:44:36;25.88;;;14.25;;
12591;SDS011;6361;52.120;5.108;2022-12-18T11:47:09;26.88;;;15.57;;
12591;SDS011;6361;52.120;5.108;2022-12-18T11:49:50;26.30;;;14.57;;
12591;SDS011;6361;52.120;5.108;2022-12-18T11:52:21;24.77;;;14.35;;
12591;SDS011;6361;52.120;5.108;2022-12-18T11:54:52;30.35;;;15.05;;
12591;SDS011;6361;52.120;5.108;2022-12-18T12:07:45;25.98;;;13.60;;
12591;SDS011;6361;52.120;5.108;2022-12-18T12:13:22;25.70;;;14.05;;
12591;SDS011;6361;52.120;5.108;2022-12-18T12:21:21;27.20;;;14.23;;
12591;SDS011;6361;52.120;5.108;2022-12-18T12:30:20;27.38;;;15.27;;
12591;SDS011;6361;52.120;5.108;2022-12-18T12:37:48;26.75;;;13.98;;
12591;SDS011;6361;52.120;5.108;2022-12-18T12:40:26;25.80;;;14.55;;
12591;SDS011;6361;52.120;5.108;2022-12-18T12:43:03;29.30;;;14.70;;
12591;SDS011;6361;52.120;5.108;2022-12-18T12:51:32;23.92;;;13.85;;
12591;SDS011;6361;52.120;5.108;2022-12-18T12:53:59;28.02;;;14.63;;
12591;SDS011;6361;52.120;5.108;2022-12-18T12:56:35;27.27;;;13.68;;
12591;SDS011;6361;52.120;5.108;2022-12-18T12:59:19;29.67;;;14.48;;
12591;SDS011;6361;52.120;5.108;2022-12-18T13:01:54;24.40;;;14.77;;
12591;SDS011;6361;52.120;5.108;2022-12-18T13:06:51;26.27;;;13.63;;
12591;SDS011;6361;52.120;5.108;2022-12-18T13:09:22;27.40;;;14.32;;
12591;SDS011;6361;52.120;5.108;2022-12-18T13:11:47;27.50;;;14.60;;
12591;SDS011;6361;52.120;5.108;2022-12-18T13:14:35;23.92;;;14.07;;
12591;SDS011;6361;52.120;5.108;2022-12-18T13:19:39;26.60;;;14.02;;
12591;SDS011;6361;52.120;5.108;2022-12-18T13:22:12;23.27;;;13.80;;
12591;SDS011;6361;52.120;5.108;2022-12-18T13:24:49;26.58;;;14.13;;
12591;SDS011;6361;52.120;5.108;2022-12-18T13:35:53;25.52;;;14.15;;
12591;SDS011;6361;52.120;5.108;2022-12-18T13:43:24;31.63;;;16.08;;
12591;SDS011;6361;52.120;5.108;2022-12-18T13:46:03;27.52;;;15.27;;
12591;SDS011;6361;52.120;5.108;2022-12-18T13:48:33;27.30;;;14.57;;
12591;SDS011;6361;52.120;5.108;2022-12-18T13:53:34;26.40;;;14.48;;
12591;SDS011;6361;52.120;5.108;2022-12-18T13:56:04;27.15;;;15.50;;
12591;SDS011;6361;52.120;5.108;2022-12-18T13:58:30;25.58;;;14.35;;
12591;SDS011;6361;52.120;5.108;2022-12-18T14:00:55;25.25;;;14.75;;
12591;SDS011;6361;52.120;5.108;2022-12-18T14:03:24;24.52;;;14.38;;
12591;SDS011;6361;52.120;5.108;2022-12-18T14:05:55;27.00;;;15.52;;
12591;SDS011;6361;52.120;5.108;2022-12-18T14:08:21;27.58;;;14.50;;
12591;SDS011;6361;52.120;5.108;2022-12-18T14:10:51;28.77;;;15.43;;
12591;SDS011;6361;52.120;5.108;2022-12-18T14:13:20;31.08;;;15.75;;
12591;SDS011;6361;52.120;5.108;2022-12-18T14:15:51;28.50;;;15.48;;
12591;SDS011;6361;52.120;5.108;2022-12-18T14:18:24;28.17;;;15.77;;
12591;SDS011;6361;52.120;5.108;2022-12-18T14:21:18;27.50;;;15.50;;
12591;SDS011;6361;52.120;5.108;2022-12-18T14:26:40;29.33;;;15.07;;
12591;SDS011;6361;52.120;5.108;2022-12-18T14:32:03;32.35;;;15.18;;
12591;SDS011;6361;52.120;5.108;2022-12-18T14:34:33;23.25;;;13.98;;
12591;SDS011;6361;52.120;5.108;2022-12-18T14:36:58;27.85;;;15.00;;
12591;SDS011;6361;52.120;5.108;2022-12-18T14:39:24;35.05;;;15.23;;
12591;SDS011;6361;52.120;5.108;2022-12-18T14:41:50;26.55;;;15.05;;
12591;SDS011;6361;52.120;5.108;2022-12-18T14:44:16;26.35;;;14.80;;
12591;SDS011;6361;52.120;5.108;2022-12-18T14:46:42;32.17;;;15.98;;
12591;SDS011;6361;52.120;5.108;2022-12-18T14:51:58;27.35;;;15.40;;
12591;SDS011;6361;52.120;5.108;2022-12-18T14:54:27;33.13;;;16.25;;
12591;SDS011;6361;52.120;5.108;2022-12-18T14:56:59;33.83;;;16.60;;
12591;SDS011;6361;52.120;5.108;2022-12-18T14:59:26;30.38;;;16.20;;
12591;SDS011;6361;52.120;5.108;2022-12-18T15:02:03;29.30;;;16.45;;
12591;SDS011;6361;52.120;5.108;2022-12-18T15:09:42;31.73;;;17.10;;
12591;SDS011;6361;52.120;5.108;2022-12-18T15:12:19;32.88;;;17.23;;
12591;SDS011;6361;52.120;5.108;2022-12-18T15:14:50;34.10;;;17.27;;
12591;SDS011;6361;52.120;5.108;2022-12-18T15:17:20;31.23;;;17.40;;
12591;SDS011;6361;52.120;5.108;2022-12-18T15:19:47;30.27;;;16.33;;
12591;SDS011;6361;52.120;5.108;2022-12-18T15:22:18;29.00;;;16.52;;
12591;SDS011;6361;52.120;5.108;2022-12-18T15:24:47;31.60;;;16.95;;
12591;SDS011;6361;52.120;5.108;2022-12-18T15:27:20;30.90;;;17.42;;
12591;SDS011;6361;52.120;5.108;2022-12-18T15:29:59;28.60;;;16.53;;
12591;SDS011;6361;52.120;5.108;2022-12-18T15:32:25;34.05;;;18.67;;
12591;SDS011;6361;52.120;5.108;2022-12-18T15:34:51;32.22;;;17.48;;
12591;SDS011;6361;52.120;5.108;2022-12-18T15:37:36;30.40;;;16.35;;
12591;SDS011;6361;52.120;5.108;2022-12-18T15:40:01;33.17;;;17.55;;
12591;SDS011;6361;52.120;5.108;2022-12-18T15:42:29;29.92;;;16.67;;
12591;SDS011;6361;52.120;5.108;2022-12-18T15:45:13;30.80;;;17.13;;
12591;SDS011;6361;52.120;5.108;2022-12-18T15:47:39;29.45;;;17.08;;
12591;SDS011;6361;52.120;5.108;2022-12-18T15:50:04;33.97;;;17.60;;
12591;SDS011;6361;52.120;5.108;2022-12-18T15:52:31;32.15;;;17.38;;
12591;SDS011;6361;52.120;5.108;2022-12-18T15:55:11;31.33;;;17.63;;
12591;SDS011;6361;52.120;5.108;2022-12-18T15:57:56;32.63;;;18.40;;
12591;SDS011;6361;52.120;5.108;2022-12-18T16:00:21;33.88;;;17.73;;
12591;SDS011;6361;52.120;5.108;2022-12-18T16:02:47;35.28;;;18.45;;
12591;SDS011;6361;52.120;5.108;2022-12-18T16:05:16;34.63;;;18.00;;
12591;SDS011;6361;52.120;5.108;2022-12-18T16:07:43;37.65;;;19.05;;
12591;SDS011;6361;52.120;5.108;2022-12-18T16:10:09;32.75;;;18.05;;
12591;SDS011;6361;52.120;5.108;2022-12-18T16:12:34;35.20;;;18.35;;
12591;SDS011;6361;52.120;5.108;2022-12-18T16:15:00;34.70;;;18.70;;
12591;SDS011;6361;52.120;5.108;2022-12-18T16:17:25;38.65;;;20.08;;
12591;SDS011;6361;52.120;5.108;2022-12-18T16:19:51;33.08;;;18.50;;
12591;SDS011;6361;52.120;5.108;2022-12-18T16:22:23;33.92;;;18.40;;
12591;SDS011;6361;52.120;5.108;2022-12-18T16:24:51;34.10;;;18.55;;
12591;SDS011;6361;52.120;5.108;2022-12-18T16:27:18;37.30;;;19.25;;
12591;SDS011;6361;52.120;5.108;2022-12-18T16:29:43;36.15;;;18.65;;
12591;SDS011;6361;52.120;5.108;2022-12-18T16:32:11;33.80;;;19.40;;
12591;SDS011;6361;52.120;5.108;2022-12-18T16:34:39;36.13;;;17.75;;
12591;SDS011;6361;52.120;5.108;2022-12-18T16:37:05;33.97;;;19.00;;
12591;SDS011;6361;52.120;5.108;2022-12-18T16:39:32;34.25;;;17.90;;
12591;SDS011;6361;52.120;5.108;2022-12-18T16:41:59;35.20;;;19.20;;
12591;SDS011;6361;52.120;5.108;2022-12-18T16:44:25;35.85;;;18.75;;
12591;SDS011;6361;52.120;5.108;2022-12-18T16:46:51;34.90;;;18.55;;
12591;SDS011;6361;52.120;5.108;2022-12-18T16:49:17;33.38;;;18.95;;
12591;SDS011;6361;52.120;5.108;2022-12-18T16:51:43;39.42;;;18.65;;